Time;durP1;ratioP1;P1;durP2;ratioP2;P2;SDS_P1;SDS_P2;PMS_P1;PMS_P2;Temp;Humidity;BMP_temperature;BMP_pressure;BME280_temperature;BME280_humidity;BME280_pressure;Samples;Min_cycle;Max_cycle;Signal;HPM_P1;HPM_P2
2023/05/21 00:00:01;;;;;;;6.00;3.85;;;25.40;55.10;;;;;;5099892;28;20110;-64
2023/05/21 00:02:38;;;;;;;6.43;4.28;;;25.40;55.30;;;;;;5102900;28;20069;-64
2023/05/21 00:05:05;;;;;;;6.65;4.03;;;25.40;55.40;;;;;;5109097;28;20039;-63
2023/05/21 00:07:32;;;;;;;7.65;4.10;;;25.30;55.60;;;;;;5093693;28;20519;-64
2023/05/21 00:09:58;;;;;;;6.95;4.18;;;25.30;55.60;;;;;;5105793;28;20058;-63
2023/05/21 00:12:24;;;;;;;6.20;4.15;;;25.30;55.70;;;;;;5097453;28;20095;-64
2023/05/21 00:14:50;;;;;;;4.63;3.95;;;25.30;55.80;;;;;;5102832;28;20032;-63
2023/05/21 00:17:16;;;;;;;5.63;4.38;;;25.30;55.80;;;;;;5101531;28;20069;-64
2023/05/21 00:19:43;;;;;;;7.03;4.38;;;25.30;55.90;;;;;;5105274;28;20711;-63
2023/05/21 00:22:09;;;;;;;5.80;4.32;;;25.40;55.90;;;;;;5093402;28;20048;-63
2023/05/21 00:24:35;;;;;;;4.82;4.13;;;25.20;56.00;;;;;;5093161;28;20035;-64
2023/05/21 00:27:01;;;;;;;6.13;4.43;;;25.40;56.10;;;;;;5101741;28;20040;-63
2023/05/21 00:29:28;;;;;;;10.65;4.95;;;25.40;56.10;;;;;;5108824;28;20036;-64
2023/05/21 00:31:55;;;;;;;8.10;4.47;;;25.30;56.20;;;;;;5096955;28;20032;-63
2023/05/21 00:34:21;;;;;;;5.35;4.15;;;25.40;56.20;;;;;;5112399;28;20063;-63
2023/05/21 00:36:47;;;;;;;5.63;4.13;;;25.30;56.20;;;;;;5112667;28;20077;-65
2023/05/21 00:39:13;;;;;;;9.48;3.78;;;25.30;56.20;;;;;;5104008;28;20483;-65
2023/05/21 00:41:41;;;;;;;5.25;3.83;;;25.20;56.20;;;;;;5104488;28;20043;-63
2023/05/21 00:44:08;;;;;;;5.43;3.72;;;25.30;56.30;;;;;;5108165;28;20450;-62
2023/05/21 00:46:35;;;;;;;6.30;4.50;;;25.30;56.40;;;;;;5103970;28;20172;-64
2023/05/21 00:49:01;;;;;;;6.53;4.38;;;25.00;56.40;;;;;;5108562;28;20031;-64
2023/05/21 00:51:29;;;;;;;6.07;4.57;;;25.10;56.40;;;;;;5111885;28;20034;-63
2023/05/21 00:53:55;;;;;;;5.45;4.65;;;25.20;56.50;;;;;;5113027;28;20042;-62
2023/05/21 00:56:23;;;;;;;7.35;4.78;;;25.10;56.50;;;;;;5096894;28;20371;-64
2023/05/21 00:58:53;;;;;;;8.15;4.82;;;25.20;56.60;;;;;;5091955;28;20417;-64
2023/05/21 01:01:19;;;;;;;9.35;4.78;;;25.00;56.70;;;;;;5084992;28;20503;-64
2023/05/21 01:03:47;;;;;;;6.55;4.80;;;25.10;56.70;;;;;;5104461;28;20035;-63
2023/05/21 01:06:14;;;;;;;6.72;4.32;;;25.00;56.90;;;;;;5112726;28;20035;-64
2023/05/21 01:08:41;;;;;;;5.75;4.78;;;25.00;57.00;;;;;;5109209;28;20024;-64
2023/05/21 01:11:08;;;;;;;7.15;4.43;;;24.90;57.00;;;;;;5109524;28;20046;-64
2023/05/21 01:13:38;;;;;;;8.70;4.40;;;25.00;57.00;;;;;;5111800;28;20409;-63
2023/05/21 01:16:07;;;;;;;5.18;4.60;;;25.10;57.00;;;;;;5104650;28;20032;-64
2023/05/21 01:18:36;;;;;;;7.20;5.07;;;25.00;57.10;;;;;;5108097;28;20360;-64
2023/05/21 01:21:03;;;;;;;6.00;4.25;;;25.10;57.10;;;;;;5095655;28;20475;-64
2023/05/21 01:23:29;;;;;;;7.22;4.72;;;25.00;57.20;;;;;;5101962;28;20123;-64
2023/05/21 01:25:55;;;;;;;4.20;3.80;;;25.10;57.20;;;;;;5110412;28;20034;-62
2023/05/21 01:28:21;;;;;;;6.13;4.32;;;25.00;57.20;;;;;;5087900;28;20044;-65
2023/05/21 01:30:47;;;;;;;6.53;4.40;;;25.10;57.20;;;;;;5095905;28;20038;-64
2023/05/21 01:33:38;;;;;;;4.55;3.50;;;25.00;57.10;;;;;;5105995;28;20039;-64
2023/05/21 01:36:12;;;;;;;6.60;4.10;;;25.00;57.10;;;;;;5101966;28;20131;-65
2023/05/21 01:38:42;;;;;;;7.60;4.70;;;25.00;57.10;;;;;;5089908;28;20028;-64
2023/05/21 01:41:12;;;;;;;7.68;4.18;;;25.00;57.00;;;;;;5105162;28;20183;-65
2023/05/21 01:43:41;;;;;;;8.05;3.38;;;25.00;57.10;;;;;;5092752;28;20487;-64
2023/05/21 01:46:09;;;;;;;5.05;3.13;;;24.90;57.10;;;;;;5102793;28;20032;-65
2023/05/21 01:48:37;;;;;;;4.22;3.15;;;24.90;57.20;;;;;;5095498;28;20036;-65
2023/05/21 01:51:05;;;;;;;4.60;3.28;;;25.00;57.20;;;;;;5079457;28;20032;-65
2023/05/21 01:53:31;;;;;;;11.85;3.47;;;24.90;57.20;;;;;;5070034;28;20032;-65
2023/05/21 01:55:58;;;;;;;3.85;3.25;;;24.90;57.30;;;;;;5099821;28;20067;-64
2023/05/21 01:58:24;;;;;;;7.00;3.30;;;24.90;57.30;;;;;;5110703;28;20030;-64
2023/05/21 02:00:51;;;;;;;6.43;3.95;;;24.80;57.20;;;;;;5099553;28;20123;-63
2023/05/21 02:03:18;;;;;;;5.63;4.20;;;24.80;57.40;;;;;;5103804;28;20031;-64
2023/05/21 02:05:44;;;;;;;8.38;4.60;;;24.80;57.40;;;;;;5111947;28;20127;-65
2023/05/21 02:08:11;;;;;;;10.55;4.63;;;24.80;57.50;;;;;;5108654;28;20035;-64
2023/05/21 02:10:37;;;;;;;8.73;4.45;;;24.90;57.60;;;;;;5099362;28;20119;-65
2023/05/21 02:13:04;;;;;;;9.40;4.88;;;24.80;57.50;;;;;;5090185;28;20472;-64
2023/05/21 02:15:33;;;;;;;5.18;4.20;;;24.90;57.60;;;;;;5118004;27;20086;-65
2023/05/21 02:17:59;;;;;;;5.10;3.90;;;24.80;57.50;;;;;;5119441;27;20440;-66
2023/05/21 02:20:25;;;;;;;7.03;4.75;;;25.00;57.60;;;;;;5110029;28;20062;-65
2023/05/21 02:22:51;;;;;;;5.70;4.15;;;24.80;57.50;;;;;;5108975;28;20458;-65
2023/05/21 02:25:18;;;;;;;6.30;4.07;;;24.80;57.60;;;;;;5108613;28;20039;-65
2023/05/21 02:27:45;;;;;;;7.60;4.47;;;24.80;57.60;;;;;;5102521;28;20061;-67
2023/05/21 02:30:13;;;;;;;9.57;4.45;;;25.00;57.60;;;;;;5103658;28;20044;-65
2023/05/21 02:32:43;;;;;;;8.18;4.32;;;24.80;57.50;;;;;;5116753;28;20020;-65
2023/05/21 02:35:11;;;;;;;6.57;4.10;;;24.80;57.50;;;;;;5074932;28;20044;-65
2023/05/21 02:37:39;;;;;;;7.47;3.83;;;24.90;57.50;;;;;;5075256;28;20029;-65
2023/05/21 02:40:06;;;;;;;4.68;3.17;;;24.90;57.60;;;;;;5101606;28;20032;-65
2023/05/21 02:42:33;;;;;;;4.28;3.22;;;24.80;57.50;;;;;;5108312;28;20028;-65
2023/05/21 02:44:59;;;;;;;5.97;3.38;;;24.90;57.60;;;;;;5110709;28;20024;-65
2023/05/21 02:47:25;;;;;;;6.90;3.80;;;24.80;57.50;;;;;;5109694;28;20219;-65
2023/05/21 02:49:52;;;;;;;5.15;3.25;;;24.80;57.60;;;;;;5075163;28;20512;-65
2023/05/21 02:52:22;;;;;;;3.72;3.03;;;24.70;57.50;;;;;;5113873;28;20031;-65
2023/05/21 02:54:49;;;;;;;5.82;4.03;;;24.70;57.50;;;;;;5087261;28;20123;-65
2023/05/21 02:57:17;;;;;;;3.67;2.90;;;24.80;57.40;;;;;;5084158;28;20376;-65
2023/05/21 02:59:44;;;;;;;6.18;3.00;;;24.70;57.50;;;;;;5100823;28;20032;-65
2023/05/21 03:02:10;;;;;;;7.78;2.97;;;24.70;57.60;;;;;;5105612;28;20029;-64
2023/05/21 03:04:45;;;;;;;5.80;2.80;;;24.80;57.70;;;;;;5109573;28;20093;-65
2023/05/21 03:07:16;;;;;;;4.97;2.60;;;24.70;57.70;;;;;;5112011;28;20104;-65
2023/05/21 03:09:44;;;;;;;3.72;3.15;;;24.70;57.60;;;;;;5110634;28;20534;-64
2023/05/21 03:12:10;;;;;;;5.40;2.42;;;24.80;57.50;;;;;;5111075;28;20024;-65
2023/05/21 03:14:36;;;;;;;3.33;2.55;;;24.80;57.50;;;;;;5111494;28;20043;-65
2023/05/21 03:17:04;;;;;;;3.60;3.03;;;24.70;57.50;;;;;;5109529;27;20016;-65
2023/05/21 03:19:35;;;;;;;5.85;3.13;;;24.70;57.50;;;;;;5106761;28;20039;-65
2023/05/21 03:22:03;;;;;;;5.07;2.80;;;24.80;57.30;;;;;;5108507;28;20055;-65
2023/05/21 03:24:30;;;;;;;5.10;2.58;;;24.90;57.30;;;;;;5126704;27;20059;-65
2023/05/21 03:26:57;;;;;;;5.57;2.92;;;24.90;57.20;;;;;;5111118;28;20042;-65
2023/05/21 03:29:24;;;;;;;4.00;2.10;;;24.80;57.20;;;;;;5110968;28;20031;-64
2023/05/21 03:31:52;;;;;;;5.95;2.42;;;24.90;57.20;;;;;;5103531;28;20028;-65
2023/05/21 03:34:19;;;;;;;3.45;2.13;;;24.70;57.20;;;;;;5109856;28;20040;-65
2023/05/21 03:36:46;;;;;;;4.90;2.30;;;24.90;57.10;;;;;;5111894;28;20031;-65
2023/05/21 03:39:13;;;;;;;4.63;2.40;;;24.90;57.10;;;;;;5110440;28;20027;-65
2023/05/21 03:41:39;;;;;;;3.20;2.38;;;24.90;57.20;;;;;;5107560;28;20063;-64
2023/05/21 03:44:09;;;;;;;4.82;2.50;;;24.80;57.10;;;;;;5090425;28;20039;-65
2023/05/21 03:46:47;;;;;;;8.98;2.42;;;24.70;57.20;;;;;;5092922;28;20020;-65
2023/05/21 03:49:23;;;;;;;5.20;2.88;;;24.70;57.20;;;;;;5106505;28;20034;-65
2023/05/21 03:51:51;;;;;;;4.10;2.30;;;24.80;57.20;;;;;;5112628;27;20035;-64
2023/05/21 03:54:19;;;;;;;2.90;2.22;;;24.80;57.20;;;;;;5111663;28;20487;-65
2023/05/21 03:56:45;;;;;;;5.03;2.78;;;24.70;57.20;;;;;;5110536;28;20108;-65
2023/05/21 03:59:11;;;;;;;4.88;2.03;;;24.80;57.20;;;;;;5106839;28;20024;-64
2023/05/21 04:01:38;;;;;;;3.47;2.10;;;24.80;57.10;;;;;;5099207;28;20023;-65
2023/05/21 04:04:04;;;;;;;4.93;2.40;;;24.80;57.10;;;;;;5098217;28;20081;-65
2023/05/21 04:06:31;;;;;;;2.80;2.03;;;24.80;57.10;;;;;;5092201;28;20524;-65
2023/05/21 04:08:57;;;;;;;2.83;2.30;;;24.70;57.20;;;;;;5093428;28;20073;-65
2023/05/21 04:11:23;;;;;;;3.42;1.98;;;24.80;57.10;;;;;;5103239;28;20028;-65
2023/05/21 04:13:50;;;;;;;3.60;2.20;;;24.80;57.10;;;;;;5107845;28;20024;-65
2023/05/21 04:16:17;;;;;;;3.15;2.05;;;24.70;57.00;;;;;;5091975;28;20032;-65
2023/05/21 04:18:45;;;;;;;4.68;2.53;;;24.80;57.00;;;;;;5103858;28;20453;-65
2023/05/21 04:21:11;;;;;;;6.07;1.83;;;25.00;57.10;;;;;;5092438;28;20067;-65
2023/05/21 04:23:37;;;;;;;1.80;1.60;;;24.80;55.50;;;;;;5109802;28;20394;-65
2023/05/21 04:26:11;;;;;;;3.88;2.10;;;24.70;56.80;;;;;;5091432;28;20114;-63
2023/05/21 04:28:40;;;;;;;2.35;1.73;;;24.70;56.80;;;;;;5090859;28;20365;-65
2023/05/21 04:31:08;;;;;;;2.95;2.20;;;24.80;56.80;;;;;;5095337;27;20031;-65
2023/05/21 04:33:34;;;;;;;3.83;2.00;;;24.80;56.90;;;;;;5117437;27;20113;-65
2023/05/21 04:36:02;;;;;;;6.05;2.55;;;24.80;56.60;;;;;;5107675;28;20047;-65
2023/05/21 04:38:29;;;;;;;3.17;1.63;;;24.90;56.50;;;;;;5113036;28;20471;-65
2023/05/21 04:40:57;;;;;;;3.63;2.28;;;25.10;56.50;;;;;;5090957;28;20030;-65
2023/05/21 04:43:27;;;;;;;3.28;1.70;;;25.00;56.20;;;;;;5099971;27;20028;-65
2023/05/21 04:45:56;;;;;;;3.00;1.90;;;25.10;56.20;;;;;;5097939;27;20062;-65
2023/05/21 04:48:23;;;;;;;5.55;2.20;;;25.00;56.40;;;;;;5089738;28;20558;-65
2023/05/21 04:50:50;;;;;;;3.72;2.38;;;25.10;56.10;;;;;;5090594;28;20040;-65
2023/05/21 04:53:16;;;;;;;1.92;1.52;;;25.00;56.40;;;;;;5090853;28;20081;-65
2023/05/21 04:55:42;;;;;;;4.72;2.13;;;25.10;56.30;;;;;;5111305;28;20031;-65
2023/05/21 04:58:11;;;;;;;2.67;1.90;;;25.30;56.00;;;;;;5110586;28;20089;-65
2023/05/21 05:00:38;;;;;;;2.00;1.60;;;25.20;55.90;;;;;;5103672;28;20036;-65
2023/05/21 05:03:05;;;;;;;3.90;2.13;;;25.10;56.20;;;;;;5093106;28;20475;-65
2023/05/21 05:05:31;;;;;;;2.55;1.95;;;25.30;55.20;;;;;;5103563;28;20039;-65
2023/05/21 05:07:57;;;;;;;2.97;2.28;;;25.30;55.20;;;;;;5091624;28;20055;-65
2023/05/21 05:10:23;;;;;;;2.42;1.83;;;25.30;55.80;;;;;;5084380;28;20048;-65
2023/05/21 05:12:51;;;;;;;3.88;2.00;;;25.40;56.10;;;;;;5102872;28;20090;-65
2023/05/21 05:15:17;;;;;;;2.55;1.50;;;25.20;55.50;;;;;;5091092;28;20392;-64
2023/05/21 05:17:43;;;;;;;2.25;1.83;;;25.50;56.00;;;;;;5082307;28;20044;-65
2023/05/21 05:20:10;;;;;;;2.72;1.60;;;25.40;56.00;;;;;;5082228;28;20072;-65
2023/05/21 05:22:36;;;;;;;3.35;1.50;;;25.40;55.90;;;;;;5085928;28;20082;-64
2023/05/21 05:25:03;;;;;;;3.22;2.10;;;25.50;55.90;;;;;;5091569;28;20063;-65
2023/05/21 05:27:29;;;;;;;2.90;1.42;;;25.60;55.90;;;;;;5098110;28;20123;-65
2023/05/21 05:29:55;;;;;;;2.70;1.80;;;25.50;55.90;;;;;;5082022;28;20111;-65
2023/05/21 05:32:21;;;;;;;4.40;2.33;;;25.40;55.70;;;;;;5066606;28;20071;-65
2023/05/21 05:34:47;;;;;;;6.25;2.30;;;25.60;55.20;;;;;;5100495;28;20039;-65
2023/05/21 05:37:14;;;;;;;3.13;1.75;;;25.60;55.90;;;;;;5080974;28;20036;-66
2023/05/21 05:39:40;;;;;;;4.22;2.00;;;25.60;55.50;;;;;;5079483;28;20063;-64
2023/05/21 05:42:06;;;;;;;5.07;1.52;;;25.60;53.10;;;;;;5101761;28;20067;-64
2023/05/21 05:44:32;;;;;;;2.03;1.55;;;25.60;50.60;;;;;;5093003;27;20125;-66
2023/05/21 05:46:58;;;;;;;4.00;1.50;;;25.60;50.60;;;;;;5086585;27;20031;-64
2023/05/21 05:49:24;;;;;;;3.38;1.30;;;25.50;51.90;;;;;;5091756;28;20502;-65
2023/05/21 05:51:51;;;;;;;4.55;1.80;;;25.70;51.30;;;;;;5095797;27;20061;-66
2023/05/21 05:54:18;;;;;;;7.97;1.60;;;25.80;50.90;;;;;;5110895;27;20048;-66
2023/05/21 05:56:44;;;;;;;1.48;1.33;;;25.80;48.60;;;;;;5108713;27;20039;-67
2023/05/21 05:59:10;;;;;;;1.92;1.40;;;25.80;48.00;;;;;;5091560;27;20518;-66
2023/05/21 06:01:37;;;;;;;4.82;1.90;;;25.80;49.60;;;;;;5112606;27;20031;-66
2023/05/21 06:04:05;;;;;;;3.45;2.10;;;25.80;49.80;;;;;;5071476;28;20044;-66
2023/05/21 06:06:31;;;;;;;3.05;2.30;;;26.00;52.00;;;;;;5097397;27;20039;-66
2023/05/21 06:08:57;;;;;;;3.20;2.90;;;26.00;49.80;;;;;;5112270;27;20039;-66
2023/05/21 06:11:24;;;;;;;0.93;0.88;;;26.10;49.70;;;;;;5099960;27;20057;-66
2023/05/21 06:13:51;;;;;;;2.35;2.03;;;26.00;54.00;;;;;;5076972;28;20070;-66
2023/05/21 06:16:17;;;;;;;9.52;2.42;;;26.20;58.30;;;;;;5084457;28;20485;-66
2023/05/21 06:18:43;;;;;;;2.17;1.65;;;26.00;52.70;;;;;;5087269;28;20161;-66
2023/05/21 06:21:09;;;;;;;3.03;2.33;;;26.10;54.40;;;;;;5099198;28;20131;-66
2023/05/21 06:23:36;;;;;;;2.90;1.98;;;26.10;53.40;;;;;;5092897;28;20040;-67
2023/05/21 06:26:03;;;;;;;6.57;1.83;;;26.10;52.40;;;;;;5089282;28;20028;-67
2023/05/21 06:28:30;;;;;;;1.67;1.55;;;26.00;52.20;;;;;;5088691;28;20073;-67
2023/05/21 06:30:57;;;;;;;3.47;2.20;;;26.00;52.50;;;;;;5089080;28;20028;-67
2023/05/21 06:33:26;;;;;;;1.63;1.52;;;26.00;51.60;;;;;;5089427;28;20032;-68
2023/05/21 06:35:52;;;;;;;5.18;2.08;;;26.10;50.90;;;;;;5105392;28;20571;-67
2023/05/21 06:38:18;;;;;;;2.00;1.40;;;26.10;49.70;;;;;;5106390;28;20491;-67
2023/05/21 06:40:46;;;;;;;2.33;1.55;;;26.10;49.40;;;;;;5105480;28;20029;-67
2023/05/21 06:43:17;;;;;;;3.08;2.03;;;26.10;49.20;;;;;;5087739;28;20068;-67
2023/05/21 06:46:02;;;;;;;2.30;1.60;;;26.10;48.80;;;;;;5088882;28;20036;-67
2023/05/21 06:48:39;;;;;;;6.03;2.15;;;26.10;47.90;;;;;;5106733;28;20031;-67
2023/05/21 06:51:05;;;;;;;1.90;1.70;;;26.10;49.20;;;;;;5107710;28;20164;-67
2023/05/21 06:53:31;;;;;;;4.22;2.40;;;26.20;52.50;;;;;;5101609;28;20106;-66
2023/05/21 06:55:57;;;;;;;6.28;2.00;;;26.10;53.50;;;;;;5089461;28;20129;-69
2023/05/21 06:58:34;;;;;;;2.08;0.90;;;26.10;51.30;;;;;;5088387;28;20040;-69
2023/05/21 07:01:00;;;;;;;1.27;1.25;;;26.00;49.50;;;;;;5096188;28;20031;-69
2023/05/21 07:03:26;;;;;;;2.92;2.33;;;26.10;45.30;;;;;;5090069;28;20032;-68
2023/05/21 07:05:53;;;;;;;1.42;1.33;;;26.20;44.70;;;;;;5090746;28;20028;-68
2023/05/21 07:08:20;;;;;;;0.88;0.88;;;26.10;44.30;;;;;;5086640;28;20043;-68
2023/05/21 07:10:46;;;;;;;0.77;0.70;;;26.10;43.80;;;;;;5101990;28;20048;-68
2023/05/21 07:13:12;;;;;;;2.10;1.60;;;26.10;43.50;;;;;;5104727;28;20036;-68
2023/05/21 07:15:38;;;;;;;2.42;1.50;;;26.10;43.80;;;;;;5051434;28;20070;-68
2023/05/21 07:18:04;;;;;;;4.65;1.85;;;26.30;44.10;;;;;;5078161;28;20044;-65
2023/05/21 07:20:30;;;;;;;2.63;1.85;;;26.20;40.90;;;;;;5090331;28;20081;-66
2023/05/21 07:23:00;;;;;;;3.00;2.10;;;26.10;42.70;;;;;;5090967;28;20050;-66
2023/05/21 07:25:26;;;;;;;8.38;2.17;;;26.20;43.50;;;;;;5101230;28;20518;-66
2023/05/21 07:27:52;;;;;;;3.08;2.33;;;26.10;43.20;;;;;;5104847;28;20035;-66
2023/05/21 07:30:19;;;;;;;3.05;1.80;;;26.20;43.10;;;;;;5085675;28;20104;-66
2023/05/21 07:32:46;;;;;;;2.85;1.98;;;26.10;43.70;;;;;;5081943;28;20062;-68
2023/05/21 07:35:12;;;;;;;3.08;2.00;;;26.30;42.50;;;;;;5081996;28;20072;-67
2023/05/21 07:37:39;;;;;;;3.30;1.88;;;26.10;43.10;;;;;;5094965;28;20031;-68
2023/05/21 07:40:06;;;;;;;4.25;1.52;;;26.20;43.10;;;;;;5106408;28;20032;-67
2023/05/21 07:42:34;;;;;;;3.75;2.65;;;26.20;42.70;;;;;;5098756;28;20056;-68
2023/05/21 07:45:01;;;;;;;4.45;2.35;;;26.20;42.70;;;;;;5120870;27;20767;-67
2023/05/21 07:47:28;;;;;;;3.50;2.17;;;26.20;42.60;;;;;;5072111;28;20071;-68
2023/05/21 07:49:55;;;;;;;2.88;2.03;;;26.30;42.50;;;;;;5089299;28;20059;-67
2023/05/21 07:52:21;;;;;;;2.40;1.90;;;26.10;42.50;;;;;;5072442;28;20101;-67
2023/05/21 07:54:47;;;;;;;5.22;2.40;;;26.20;42.40;;;;;;5126160;27;20036;-67
2023/05/21 07:57:13;;;;;;;6.35;3.42;;;26.10;42.40;;;;;;5092527;28;20179;-67
2023/05/21 08:00:11;;;;;;;5.43;1.90;;;26.20;42.50;;;;;;5050778;28;20089;-67
2023/05/21 08:02:51;;;;;;;2.40;2.20;;;26.30;42.40;;;;;;5034281;28;20044;-67
2023/05/21 08:05:17;;;;;;;2.55;2.00;;;26.30;42.60;;;;;;5031940;28;20053;-67
2023/05/21 08:07:43;;;;;;;3.97;2.17;;;26.20;42.50;;;;;;5014474;28;20034;-67
2023/05/21 08:10:10;;;;;;;4.28;2.53;;;26.10;42.60;;;;;;5031723;28;20036;-67
2023/05/21 08:12:36;;;;;;;2.95;1.90;;;26.10;42.20;;;;;;5051042;28;20472;-67
2023/05/21 08:15:03;;;;;;;2.90;2.35;;;26.20;42.10;;;;;;5046484;28;20075;-67
2023/05/21 08:17:31;;;;;;;3.75;2.15;;;26.10;42.30;;;;;;5032210;28;20147;-67
2023/05/21 08:19:56;;;;;;;1.85;1.70;;;26.00;43.00;;;;;;5058218;28;20119;-68
2023/05/21 08:22:22;;;;;;;2.65;2.10;;;26.20;42.10;;;;;;5021033;28;20056;-67
2023/05/21 08:24:49;;;;;;;2.55;2.35;;;26.00;42.10;;;;;;5044333;28;20075;-65
2023/05/21 08:27:15;;;;;;;2.90;1.83;;;26.00;42.20;;;;;;5045531;28;20024;-65
2023/05/21 08:29:42;;;;;;;4.88;2.17;;;26.00;42.50;;;;;;5051312;28;20110;-65
2023/05/21 08:32:09;;;;;;;3.70;2.40;;;25.90;42.90;;;;;;5053776;28;20036;-65
2023/05/21 08:34:35;;;;;;;4.15;2.30;;;26.00;43.50;;;;;;5053270;28;20033;-65
2023/05/21 08:37:22;;;;;;;5.07;2.40;;;26.00;43.50;;;;;;5063711;28;20121;-64
2023/05/21 08:40:12;;;;;;;2.85;2.55;;;26.00;43.70;;;;;;5068200;28;20040;-65
2023/05/21 08:42:45;;;;;;;5.97;2.90;;;26.00;43.60;;;;;;5053282;28;20040;-65
2023/05/21 08:45:22;;;;;;;3.70;2.38;;;25.90;43.30;;;;;;5053534;28;20085;-65
2023/05/21 08:47:55;;;;;;;4.72;2.80;;;26.00;43.90;;;;;;5053153;28;20435;-65
2023/05/21 08:50:26;;;;;;;2.90;2.60;;;26.00;43.80;;;;;;5069623;28;20040;-66
2023/05/21 08:52:54;;;;;;;2.67;2.10;;;26.00;44.20;;;;;;5053024;28;20127;-65
2023/05/21 08:55:23;;;;;;;3.40;2.20;;;26.00;44.20;;;;;;5069632;28;20126;-65
2023/05/21 08:57:51;;;;;;;4.72;2.75;;;26.00;44.10;;;;;;5069700;28;20115;-65
2023/05/21 09:00:19;;;;;;;3.30;2.38;;;26.00;44.60;;;;;;5053257;28;20407;-65
2023/05/21 09:02:46;;;;;;;3.30;2.30;;;26.00;44.30;;;;;;5069833;28;20044;-65
2023/05/21 09:05:15;;;;;;;2.30;2.10;;;26.00;44.70;;;;;;5052668;28;20067;-66
2023/05/21 09:07:47;;;;;;;4.07;1.90;;;26.00;45.00;;;;;;5053206;28;20037;-63
2023/05/21 09:10:36;;;;;;;3.33;1.95;;;26.10;45.20;;;;;;5069531;28;20047;-65
2023/05/21 09:13:02;;;;;;;4.03;2.20;;;26.00;45.00;;;;;;5052736;28;20152;-65
2023/05/21 09:15:29;;;;;;;1.58;1.10;;;26.00;45.30;;;;;;5108103;27;20168;-65
2023/05/21 09:17:56;;;;;;;2.10;1.88;;;26.00;45.50;;;;;;5113129;27;20035;-65
2023/05/21 09:20:40;;;;;;;8.48;2.50;;;25.90;44.80;;;;;;5126814;27;20048;-65
2023/05/21 09:23:11;;;;;;;10.02;2.45;;;25.90;45.40;;;;;;5112248;28;20048;-65
2023/05/21 09:25:38;;;;;;;3.45;2.13;;;25.90;45.60;;;;;;5112463;28;20028;-65
2023/05/21 09:28:14;;;;;;;12.60;2.88;;;25.80;45.70;;;;;;5109661;28;20044;-65
2023/05/21 09:30:47;;;;;;;4.10;2.45;;;26.00;46.40;;;;;;5110005;28;20047;-66
2023/05/21 09:33:30;;;;;;;5.45;1.73;;;25.90;46.00;;;;;;5092631;28;20491;-65
2023/05/21 09:35:56;;;;;;;2.70;2.15;;;25.80;46.10;;;;;;5085778;28;20515;-65
2023/05/21 09:38:25;;;;;;;3.97;2.22;;;25.80;45.80;;;;;;5072307;28;20580;-65
2023/05/21 09:40:55;;;;;;;4.07;1.83;;;25.70;45.80;;;;;;5089402;28;20064;-65
2023/05/21 09:43:22;;;;;;;4.40;2.40;;;25.80;45.90;;;;;;5071427;28;20055;-65
2023/05/21 09:45:55;;;;;;;2.75;2.10;;;25.90;46.40;;;;;;5072158;28;20036;-64
2023/05/21 09:48:40;;;;;;;2.75;2.22;;;25.80;46.40;;;;;;5072303;28;20502;-66
2023/05/21 09:51:17;;;;;;;3.60;1.90;;;25.90;46.60;;;;;;5072333;28;20036;-65
2023/05/21 09:53:44;;;;;;;5.95;2.67;;;25.80;46.70;;;;;;5082647;28;20511;-65
2023/05/21 09:56:10;;;;;;;5.72;2.20;;;25.80;46.70;;;;;;5068691;28;20036;-65
2023/05/21 09:58:37;;;;;;;3.20;2.50;;;25.80;46.40;;;;;;5069346;28;20036;-66
2023/05/21 10:01:03;;;;;;;4.32;1.90;;;25.90;46.90;;;;;;5071159;28;20040;-65
2023/05/21 10:03:32;;;;;;;5.20;2.60;;;25.80;46.70;;;;;;5071162;28;20066;-65
2023/05/21 10:05:59;;;;;;;2.13;1.95;;;26.00;47.40;;;;;;5071275;28;20044;-65
2023/05/21 10:08:29;;;;;;;4.68;2.17;;;26.00;47.40;;;;;;5071334;28;20044;-66
2023/05/21 10:10:55;;;;;;;2.30;2.00;;;25.90;47.00;;;;;;5071116;28;20424;-66
2023/05/21 10:13:22;;;;;;;2.30;2.20;;;25.80;46.80;;;;;;5069797;28;20052;-65
2023/05/21 10:15:56;;;;;;;3.67;2.60;;;25.80;47.20;;;;;;5071144;28;20044;-65
2023/05/21 10:18:23;;;;;;;3.50;2.72;;;25.90;47.40;;;;;;5071109;28;20063;-65
2023/05/21 10:20:50;;;;;;;3.10;2.78;;;25.80;47.50;;;;;;5074893;28;20028;-65
2023/05/21 10:23:19;;;;;;;4.63;2.75;;;25.80;47.50;;;;;;5091235;28;20055;-65
2023/05/21 10:25:46;;;;;;;4.78;3.00;;;25.80;47.60;;;;;;5091579;28;20030;-64
2023/05/21 10:28:16;;;;;;;3.88;2.60;;;25.80;47.80;;;;;;5091175;28;20043;-65
2023/05/21 10:30:45;;;;;;;3.70;2.38;;;25.70;47.00;;;;;;5091095;28;20062;-65
2023/05/21 10:33:17;;;;;;;2.35;2.10;;;25.70;47.80;;;;;;5091289;28;20060;-65
2023/05/21 10:35:45;;;;;;;3.13;2.60;;;25.70;47.90;;;;;;5090762;28;20131;-65
2023/05/21 10:38:13;;;;;;;6.45;1.90;;;25.80;47.70;;;;;;5091141;28;20036;-65
2023/05/21 10:40:39;;;;;;;4.72;2.70;;;25.60;48.10;;;;;;5073101;28;20057;-65
2023/05/21 10:43:14;;;;;;;5.32;1.88;;;25.70;48.10;;;;;;5091027;28;20036;-66
2023/05/21 10:46:01;;;;;;;4.53;1.85;;;25.70;48.30;;;;;;5090598;28;20036;-65
2023/05/21 10:48:36;;;;;;;2.45;1.73;;;25.70;48.30;;;;;;5089929;28;20031;-65
2023/05/21 10:51:17;;;;;;;5.07;2.65;;;25.70;48.40;;;;;;5091441;28;20380;-65
2023/05/21 10:54:04;;;;;;;3.17;2.70;;;25.70;47.80;;;;;;5091163;28;20044;-65
2023/05/21 10:56:53;;;;;;;2.95;2.15;;;25.70;48.50;;;;;;5094440;28;20040;-65
2023/05/21 10:59:46;;;;;;;2.28;1.77;;;25.80;48.60;;;;;;5094895;28;20036;-65
2023/05/21 11:02:14;;;;;;;4.38;1.92;;;25.80;48.00;;;;;;5094767;28;20117;-66
2023/05/21 11:04:43;;;;;;;5.00;2.58;;;25.80;48.30;;;;;;5094679;28;20357;-66
2023/05/21 11:07:11;;;;;;;3.83;1.75;;;25.70;48.10;;;;;;5093437;28;20074;-65
2023/05/21 11:09:37;;;;;;;3.90;2.58;;;25.70;48.80;;;;;;5094487;28;20028;-65
2023/05/21 11:12:03;;;;;;;4.80;2.70;;;25.70;48.30;;;;;;5094588;28;20024;-66
2023/05/21 11:14:31;;;;;;;2.97;2.13;;;25.70;48.90;;;;;;5093190;28;20044;-65
2023/05/21 11:17:09;;;;;;;4.47;2.05;;;25.80;49.00;;;;;;5094910;28;20035;-66
2023/05/21 11:19:43;;;;;;;3.42;2.17;;;25.70;48.10;;;;;;5094608;28;20059;-65
2023/05/21 11:22:33;;;;;;;2.53;2.10;;;25.60;49.10;;;;;;5094412;28;20064;-65
2023/05/21 11:25:01;;;;;;;4.80;1.73;;;25.60;49.10;;;;;;5094499;28;20042;-65
2023/05/21 11:27:35;;;;;;;3.33;2.47;;;25.60;49.10;;;;;;5094515;28;20432;-66
2023/05/21 11:30:15;;;;;;;2.05;1.08;;;25.40;49.20;;;;;;5094301;28;20422;-66
2023/05/21 11:33:06;;;;;;;2.63;1.88;;;25.60;49.30;;;;;;5092630;28;20391;-65
2023/05/21 11:35:54;;;;;;;4.35;2.30;;;25.60;47.20;;;;;;5094140;28;20376;-65
2023/05/21 11:38:20;;;;;;;4.63;2.65;;;25.60;49.10;;;;;;5094264;28;20035;-64
2023/05/21 11:40:53;;;;;;;6.30;3.45;;;25.60;51.50;;;;;;5094245;28;20034;-66
2023/05/21 11:43:19;;;;;;;6.90;2.70;;;25.80;52.20;;;;;;5094180;28;20039;-67
2023/05/21 11:45:46;;;;;;;3.83;2.40;;;26.10;56.10;;;;;;5092066;28;20054;-66
2023/05/21 11:48:16;;;;;;;9.32;3.00;;;26.60;59.80;;;;;;5092729;28;20036;-66
2023/05/21 11:50:44;;;;;;;3.25;2.63;;;26.90;50.70;;;;;;5096012;28;20046;-65
2023/05/21 11:53:11;;;;;;;7.45;3.17;;;26.90;52.60;;;;;;5100026;28;20813;-66
2023/05/21 11:55:42;;;;;;;3.90;2.30;;;26.90;49.80;;;;;;5092483;28;20028;-65
2023/05/21 11:58:12;;;;;;;3.58;2.72;;;26.70;49.80;;;;;;5083893;28;20085;-66
2023/05/21 12:00:39;;;;;;;6.47;2.92;;;26.70;50.10;;;;;;5066633;28;20399;-66
2023/05/21 12:03:06;;;;;;;5.82;2.85;;;26.70;49.40;;;;;;5093451;28;20097;-67
2023/05/21 12:05:48;;;;;;;5.53;2.25;;;26.60;48.00;;;;;;5090455;28;20073;-65
2023/05/21 12:08:24;;;;;;;2.92;1.70;;;26.80;48.80;;;;;;5094226;28;20078;-65
2023/05/21 12:10:57;;;;;;;5.80;2.58;;;26.80;45.20;;;;;;5101977;28;20027;-66
2023/05/21 12:13:24;;;;;;;3.78;2.75;;;26.60;45.40;;;;;;5099296;28;20036;-65
2023/05/21 12:15:52;;;;;;;8.98;3.30;;;26.50;45.40;;;;;;5102753;28;20054;-66
2023/05/21 12:18:19;;;;;;;4.68;2.85;;;26.50;45.50;;;;;;5092346;28;20031;-66
2023/05/21 12:20:45;;;;;;;3.08;2.20;;;26.40;45.30;;;;;;5078641;28;20036;-65
2023/05/21 12:23:24;;;;;;;4.43;2.38;;;26.40;45.50;;;;;;5102820;28;20500;-66
2023/05/21 12:25:52;;;;;;;2.47;1.98;;;26.30;45.30;;;;;;5112957;28;20535;-66
2023/05/21 12:28:20;;;;;;;3.88;2.20;;;26.30;48.30;;;;;;5111128;28;20039;-66
2023/05/21 12:30:47;;;;;;;3.42;2.22;;;26.30;49.30;;;;;;5101880;28;20408;-66
2023/05/21 12:33:13;;;;;;;7.05;1.88;;;26.40;49.70;;;;;;5106328;28;20073;-66
2023/05/21 12:35:38;;;;;;;7.10;2.65;;;26.40;50.40;;;;;;5113129;28;20036;-66
2023/05/21 12:38:06;;;;;;;3.67;2.08;;;26.40;50.10;;;;;;5107546;28;20444;-66
2023/05/21 12:40:36;;;;;;;3.63;2.08;;;26.40;49.70;;;;;;5109292;28;20031;-67
2023/05/21 12:43:03;;;;;;;2.40;2.20;;;26.30;51.40;;;;;;5102133;28;20035;-67
2023/05/21 12:45:31;;;;;;;2.55;1.55;;;26.40;52.00;;;;;;5107304;28;20047;-66
2023/05/21 12:48:00;;;;;;;2.20;2.00;;;26.40;52.60;;;;;;5105349;28;21598;-67
2023/05/21 12:50:26;;;;;;;2.38;1.92;;;26.30;52.60;;;;;;5103381;28;20424;-67
2023/05/21 12:52:56;;;;;;;6.47;1.92;;;26.30;52.60;;;;;;5095207;28;20066;-67